sensor_id;sensor_type;location;lat;lon;timestamp;pressure;altitude;pressure_sealevel;temperature;humidity
60375;BME280;70244;48.792;9.172;2023-11-21T05:17:50;96962.19;;;17.86;76.01
60375;BME280;70244;48.792;9.172;2023-11-21T05:21:14;96967.94;;;17.64;76.92
60375;BME280;70244;48.792;9.172;2023-11-21T05:23:44;96968.14;;;17.54;77.03
60375;BME280;70244;48.792;9.172;2023-11-21T05:26:15;96969.80;;;17.53;77.17
60375;BME280;70244;48.792;9.172;2023-11-21T05:28:51;96976.69;;;17.38;77.65
60375;BME280;70244;48.792;9.172;2023-11-21T05:31:17;96978.21;;;17.44;77.59
60375;BME280;70244;48.792;9.172;2023-11-21T05:33:47;96980.56;;;17.31;78.07
60375;BME280;70244;48.792;9.172;2023-11-21T05:36:18;96983.14;;;17.44;77.63
60375;BME280;70244;48.792;9.172;2023-11-21T05:38:49;96990.73;;;17.75;76.96
60375;BME280;70244;48.792;9.172;2023-11-21T05:41:20;96987.49;;;17.48;78.30
60375;BME280;70244;48.792;9.172;2023-11-21T05:43:50;96993.02;;;17.65;78.63
60375;BME280;70244;48.792;9.172;2023-11-21T05:46:21;96996.01;;;17.93;78.41
60375;BME280;70244;48.792;9.172;2023-11-21T05:48:52;96995.63;;;18.13;78.11
60375;BME280;70244;48.792;9.172;2023-11-21T05:51:22;96996.77;;;18.49;77.09
60375;BME280;70244;48.792;9.172;2023-11-21T05:53:53;96997.60;;;18.53;76.83
60375;BME280;70244;48.792;9.172;2023-11-21T05:56:24;96995.92;;;18.73;76.40
60375;BME280;70244;48.792;9.172;2023-11-21T05:58:55;96997.94;;;18.65;76.58
60375;BME280;70244;48.792;9.172;2023-11-21T06:01:25;96992.93;;;19.09;74.99
60375;BME280;70244;48.792;9.172;2023-11-21T06:03:56;96993.78;;;19.16;74.70
60375;BME280;70244;48.792;9.172;2023-11-21T06:06:27;96995.13;;;19.48;73.54
60375;BME280;70244;48.792;9.172;2023-11-21T06:08:57;96997.96;;;19.70;72.42
60375;BME280;70244;48.792;9.172;2023-11-21T06:11:28;97001.54;;;20.12;68.77
60375;BME280;70244;48.792;9.172;2023-11-21T06:13:58;97005.46;;;19.86;67.67
60375;BME280;70244;48.792;9.172;2023-11-21T06:16:29;97010.53;;;20.11;66.79
60375;BME280;70244;48.792;9.172;2023-11-21T06:19:00;97014.66;;;20.12;65.53
60375;BME280;70244;48.792;9.172;2023-11-21T06:21:31;97018.29;;;19.67;65.55
60375;BME280;70244;48.792;9.172;2023-11-21T06:24:01;97023.04;;;20.31;64.88
60375;BME280;70244;48.792;9.172;2023-11-21T06:26:32;97021.78;;;19.58;66.90
60375;BME280;70244;48.792;9.172;2023-11-21T06:29:02;97026.45;;;19.89;66.27
60375;BME280;70244;48.792;9.172;2023-11-21T06:31:33;97029.47;;;19.92;66.72
60375;BME280;70244;48.792;9.172;2023-11-21T06:34:04;97031.66;;;20.08;66.23
60375;BME280;70244;48.792;9.172;2023-11-21T06:36:35;97033.87;;;19.82;67.18
60375;BME280;70244;48.792;9.172;2023-11-21T06:39:05;97035.37;;;19.79;67.39
60375;BME280;70244;48.792;9.172;2023-11-21T06:41:36;97037.41;;;19.69;67.98
60375;BME280;70244;48.792;9.172;2023-11-21T06:44:06;97038.96;;;20.11;66.78
60375;BME280;70244;48.792;9.172;2023-11-21T06:46:37;97043.71;;;19.53;68.77
60375;BME280;70244;48.792;9.172;2023-11-21T06:49:08;97048.79;;;19.87;67.81
60375;BME280;70244;48.792;9.172;2023-11-21T06:51:38;97052.09;;;20.05;67.40
60375;BME280;70244;48.792;9.172;2023-11-21T06:54:09;97050.50;;;20.05;67.40
60375;BME280;70244;48.792;9.172;2023-11-21T06:56:40;97053.50;;;20.19;66.99
60375;BME280;70244;48.792;9.172;2023-11-21T06:59:11;97055.38;;;20.25;66.85
60375;BME280;70244;48.792;9.172;2023-11-21T07:01:41;97057.66;;;20.45;66.41
60375;BME280;70244;48.792;9.172;2023-11-21T07:04:12;97061.57;;;20.16;67.19
60375;BME280;70244;48.792;9.172;2023-11-21T07:06:43;97063.50;;;19.99;67.66
60375;BME280;70244;48.792;9.172;2023-11-21T07:09:13;97066.38;;;20.16;67.30
60375;BME280;70244;48.792;9.172;2023-11-21T07:11:44;97066.84;;;19.99;67.74
60375;BME280;70244;48.792;9.172;2023-11-21T07:14:15;97064.87;;;19.92;67.99
60375;BME280;70244;48.792;9.172;2023-11-21T07:16:46;97070.36;;;20.04;67.69
60375;BME280;70244;48.792;9.172;2023-11-21T07:19:16;97069.13;;;19.91;68.07
60375;BME280;70244;48.792;9.172;2023-11-21T07:21:47;97073.00;;;19.87;68.14
60375;BME280;70244;48.792;9.172;2023-11-21T07:24:18;97078.08;;;19.81;68.37
60375;BME280;70244;48.792;9.172;2023-11-21T07:26:48;97084.64;;;19.50;69.32
60375;BME280;70244;48.792;9.172;2023-11-21T07:29:19;97087.86;;;19.45;69.50
60375;BME280;70244;48.792;9.172;2023-11-21T07:31:49;97090.94;;;19.49;69.51
60375;BME280;70244;48.792;9.172;2023-11-21T07:34:20;97094.03;;;19.32;70.04
60375;BME280;70244;48.792;9.172;2023-11-21T07:36:51;97092.86;;;19.46;69.61
60375;BME280;70244;48.792;9.172;2023-11-21T07:39:22;97094.68;;;19.39;69.84
60375;BME280;70244;48.792;9.172;2023-11-21T07:41:52;97104.38;;;19.27;70.26
60375;BME280;70244;48.792;9.172;2023-11-21T07:44:23;97098.94;;;19.52;69.54
60375;BME280;70244;48.792;9.172;2023-11-21T07:46:54;97100.42;;;19.26;70.28
60375;BME280;70244;48.792;9.172;2023-11-21T07:49:25;97105.96;;;19.26;70.31
60375;BME280;70244;48.792;9.172;2023-11-21T07:51:55;97107.53;;;19.29;70.24
60375;BME280;70244;48.792;9.172;2023-11-21T07:54:26;97108.85;;;19.29;70.28
60375;BME280;70244;48.792;9.172;2023-11-21T07:56:57;97108.63;;;19.22;70.45
60375;BME280;70244;48.792;9.172;2023-11-21T07:59:27;97109.47;;;19.10;70.82
60375;BME280;70244;48.792;9.172;2023-11-21T08:01:58;97110.45;;;19.24;70.49
60375;BME280;70244;48.792;9.172;2023-11-21T08:04:29;97110.66;;;19.37;70.09
60375;BME280;70244;48.792;9.172;2023-11-21T08:06:59;97115.46;;;19.35;70.18
60375;BME280;70244;48.792;9.172;2023-11-21T08:09:30;97114.23;;;19.42;70.04
60375;BME280;70244;48.792;9.172;2023-11-21T08:12:01;97119.94;;;19.14;70.82
60375;BME280;70244;48.792;9.172;2023-11-21T08:14:32;97119.89;;;19.10;70.98
60375;BME280;70244;48.792;9.172;2023-11-21T08:17:03;97119.34;;;19.02;71.26
60375;BME280;70244;48.792;9.172;2023-11-21T08:19:33;97123.00;;;19.23;70.57
60375;BME280;70244;48.792;9.172;2023-11-21T08:22:04;97124.60;;;19.11;70.95
60375;BME280;70244;48.792;9.172;2023-11-21T08:24:34;97126.92;;;19.29;70.47
60375;BME280;70244;48.792;9.172;2023-11-21T08:27:05;97129.10;;;19.25;70.54
60375;BME280;70244;48.792;9.172;2023-11-21T08:29:36;97129.58;;;19.10;70.94
60375;BME280;70244;48.792;9.172;2023-11-21T08:32:07;97131.79;;;19.29;70.44
60375;BME280;70244;48.792;9.172;2023-11-21T08:34:37;97129.72;;;19.04;71.10
60375;BME280;70244;48.792;9.172;2023-11-21T08:37:08;97132.07;;;19.20;70.66
60375;BME280;70244;48.792;9.172;2023-11-21T08:39:39;97135.62;;;19.06;71.14
60375;BME280;70244;48.792;9.172;2023-11-21T08:42:09;97134.41;;;19.12;70.92
60375;BME280;70244;48.792;9.172;2023-11-21T08:44:40;97135.39;;;19.11;70.95
60375;BME280;70244;48.792;9.172;2023-11-21T08:47:11;97140.11;;;19.11;70.95
60375;BME280;70244;48.792;9.172;2023-11-21T08:49:42;97138.76;;;19.27;70.57
60375;BME280;70244;48.792;9.172;2023-11-21T08:52:12;97141.62;;;19.03;71.22
60375;BME280;70244;48.792;9.172;2023-11-21T08:54:43;97144.57;;;19.24;70.69
60375;BME280;70244;48.792;9.172;2023-11-21T08:57:13;97146.01;;;19.23;70.74
60375;BME280;70244;48.792;9.172;2023-11-21T08:59:44;97151.88;;;19.25;70.63
60375;BME280;70244;48.792;9.172;2023-11-21T09:02:15;97151.49;;;19.18;70.84
60375;BME280;70244;48.792;9.172;2023-11-21T09:04:45;97157.71;;;19.27;70.62
60375;BME280;70244;48.792;9.172;2023-11-21T09:07:16;97154.93;;;19.15;70.91
60375;BME280;70244;48.792;9.172;2023-11-21T09:09:47;97154.39;;;19.24;70.63
60375;BME280;70244;48.792;9.172;2023-11-21T09:12:18;97156.74;;;19.30;70.45
60375;BME280;70244;48.792;9.172;2023-11-21T09:14:49;97155.23;;;19.48;69.94
60375;BME280;70244;48.792;9.172;2023-11-21T09:17:19;97161.20;;;19.23;70.66
60375;BME280;70244;48.792;9.172;2023-11-21T09:19:50;97162.95;;;19.06;71.19
60375;BME280;70244;48.792;9.172;2023-11-21T09:22:21;97165.87;;;19.35;70.33
60375;BME280;70244;48.792;9.172;2023-11-21T09:24:51;97168.28;;;19.28;70.40
60375;BME280;70244;48.792;9.172;2023-11-21T09:27:22;97171.08;;;19.03;71.14
60375;BME280;70244;48.792;9.172;2023-11-21T09:29:53;97170.76;;;19.22;70.67
60375;BME280;70244;48.792;9.172;2023-11-21T09:32:24;97173.60;;;19.18;70.70
60375;BME280;70244;48.792;9.172;2023-11-21T09:34:54;97172.71;;;19.34;70.31
60375;BME280;70244;48.792;9.172;2023-11-21T09:37:25;97177.28;;;19.09;71.01
60375;BME280;70244;48.792;9.172;2023-11-21T09:39:56;97175.36;;;19.05;71.10
60375;BME280;70244;48.792;9.172;2023-11-21T09:42:31;97177.24;;;19.10;70.86
60375;BME280;70244;48.792;9.172;2023-11-21T09:45:03;97177.67;;;19.16;70.75
60375;BME280;70244;48.792;9.172;2023-11-21T09:47:28;97180.45;;;19.19;70.63
60375;BME280;70244;48.792;9.172;2023-11-21T09:50:01;97183.01;;;19.32;70.34
60375;BME280;70244;48.792;9.172;2023-11-21T09:52:31;97182.79;;;19.36;70.21
60375;BME280;70244;48.792;9.172;2023-11-21T09:55:00;97186.32;;;19.40;70.09
60375;BME280;70244;48.792;9.172;2023-11-21T09:57:31;97188.31;;;19.27;70.51
60375;BME280;70244;48.792;9.172;2023-11-21T10:00:02;97190.38;;;19.35;70.15
60375;BME280;70244;48.792;9.172;2023-11-21T10:02:33;97191.56;;;19.49;69.78
60375;BME280;70244;48.792;9.172;2023-11-21T10:05:03;97190.84;;;19.27;70.40
60375;BME280;70244;48.792;9.172;2023-11-21T10:07:34;97195.06;;;19.33;70.28
60375;BME280;70244;48.792;9.172;2023-11-21T10:10:06;97193.49;;;19.19;70.64
60375;BME280;70244;48.792;9.172;2023-11-21T10:12:35;97192.97;;;19.37;70.18
60375;BME280;70244;48.792;9.172;2023-11-21T10:15:08;97193.95;;;19.35;70.29
60375;BME280;70244;48.792;9.172;2023-11-21T10:17:38;97193.93;;;19.21;70.48
60375;BME280;70244;48.792;9.172;2023-11-21T10:20:08;97198.94;;;19.34;70.24
60375;BME280;70244;48.792;9.172;2023-11-21T10:22:39;97202.17;;;19.22;70.54
60375;BME280;70244;48.792;9.172;2023-11-21T10:25:09;97200.73;;;19.28;70.50
60375;BME280;70244;48.792;9.172;2023-11-21T10:27:39;97200.11;;;19.14;70.79
60375;BME280;70244;48.792;9.172;2023-11-21T10:30:10;97202.34;;;19.18;70.67
60375;BME280;70244;48.792;9.172;2023-11-21T10:32:42;97204.72;;;19.03;71.17
60375;BME280;70244;48.792;9.172;2023-11-21T10:35:11;97204.62;;;19.10;71.06
60375;BME280;70244;48.792;9.172;2023-11-21T10:37:42;97208.03;;;19.16;70.87
60375;BME280;70244;48.792;9.172;2023-11-21T10:40:12;97207.58;;;19.13;70.89
60375;BME280;70244;48.792;9.172;2023-11-21T10:42:43;97209.51;;;19.13;70.92
60375;BME280;70244;48.792;9.172;2023-11-21T10:45:14;97206.42;;;19.19;70.72
60375;BME280;70244;48.792;9.172;2023-11-21T10:47:45;97210.21;;;18.86;71.67
60375;BME280;70244;48.792;9.172;2023-11-21T10:50:18;97211.99;;;19.05;71.22
60375;BME280;70244;48.792;9.172;2023-11-21T10:52:46;97211.50;;;19.08;71.13
60375;BME280;70244;48.792;9.172;2023-11-21T10:55:17;97210.16;;;19.14;70.94
60375;BME280;70244;48.792;9.172;2023-11-21T10:57:51;97210.97;;;19.12;71.08
60375;BME280;70244;48.792;9.172;2023-11-21T11:00:19;97208.31;;;19.12;70.95
60375;BME280;70244;48.792;9.172;2023-11-21T11:02:52;97209.12;;;19.26;70.61
60375;BME280;70244;48.792;9.172;2023-11-21T11:05:21;97209.80;;;19.30;70.53
60375;BME280;70244;48.792;9.172;2023-11-21T11:07:51;97210.70;;;19.42;70.17
60375;BME280;70244;48.792;9.172;2023-11-21T11:10:21;97210.75;;;19.25;70.57
60375;BME280;70244;48.792;9.172;2023-11-21T11:12:52;97212.42;;;19.33;70.22
60375;BME280;70244;48.792;9.172;2023-11-21T11:15:23;97209.29;;;19.43;69.94
60375;BME280;70244;48.792;9.172;2023-11-21T11:17:54;97209.20;;;19.41;70.03
60375;BME280;70244;48.792;9.172;2023-11-21T11:20:27;97206.65;;;19.34;70.21
60375;BME280;70244;48.792;9.172;2023-11-21T11:23:08;97210.09;;;19.30;70.22
60375;BME280;70244;48.792;9.172;2023-11-21T11:25:35;97210.11;;;19.25;70.35
60375;BME280;70244;48.792;9.172;2023-11-21T11:28:02;97211.04;;;19.17;70.45
60375;BME280;70244;48.792;9.172;2023-11-21T11:30:43;97213.49;;;19.07;70.74
60375;BME280;70244;48.792;9.172;2023-11-21T11:33:04;97212.55;;;19.03;70.91
60375;BME280;70244;48.792;9.172;2023-11-21T11:35:34;97209.86;;;19.41;70.17
60375;BME280;70244;48.792;9.172;2023-11-21T11:37:59;97210.81;;;19.73;70.25
60375;BME280;70244;48.792;9.172;2023-11-21T11:43:01;97213.18;;;19.40;71.57
60375;BME280;70244;48.792;9.172;2023-11-21T11:45:33;97216.85;;;19.65;71.16
60375;BME280;70244;48.792;9.172;2023-11-21T11:48:03;97218.64;;;19.84;70.44
60375;BME280;70244;48.792;9.172;2023-11-21T11:50:33;97220.23;;;19.93;70.31
60375;BME280;70244;48.792;9.172;2023-11-21T11:53:12;97218.59;;;20.03;69.21
60375;BME280;70244;48.792;9.172;2023-11-21T11:55:34;97216.00;;;20.09;70.71
60375;BME280;70244;48.792;9.172;2023-11-21T11:58:06;97213.17;;;20.43;70.67
60375;BME280;70244;48.792;9.172;2023-11-21T12:00:36;97212.95;;;20.37;70.40
60375;BME280;70244;48.792;9.172;2023-11-21T12:03:07;97215.56;;;20.61;70.96
60375;BME280;70244;48.792;9.172;2023-11-21T12:05:36;97218.54;;;20.93;69.03
60375;BME280;70244;48.792;9.172;2023-11-21T12:08:07;97217.75;;;20.87;68.81
60375;BME280;70244;48.792;9.172;2023-11-21T12:10:39;97215.86;;;20.77;68.92
60375;BME280;70244;48.792;9.172;2023-11-21T12:13:09;97220.75;;;21.06;68.26
60375;BME280;70244;48.792;9.172;2023-11-21T12:15:39;97222.72;;;20.91;68.62
60375;BME280;70244;48.792;9.172;2023-11-21T12:18:09;97224.85;;;21.17;68.16
60375;BME280;70244;48.792;9.172;2023-11-21T12:20:39;97225.76;;;21.07;67.99
60375;BME280;70244;48.792;9.172;2023-11-21T12:23:10;97224.77;;;20.78;68.78
60375;BME280;70244;48.792;9.172;2023-11-21T12:25:41;97228.31;;;20.51;69.46
60375;BME280;70244;48.792;9.172;2023-11-21T12:28:12;97224.67;;;20.48;69.20
60375;BME280;70244;48.792;9.172;2023-11-21T12:30:48;97229.31;;;20.38;69.53
60375;BME280;70244;48.792;9.172;2023-11-21T12:33:13;97225.97;;;20.40;69.47
60375;BME280;70244;48.792;9.172;2023-11-21T12:35:43;97227.07;;;20.32;69.65
60375;BME280;70244;48.792;9.172;2023-11-21T12:38:14;97228.46;;;20.14;70.14
60375;BME280;70244;48.792;9.172;2023-11-21T12:40:44;97229.73;;;20.14;70.11
60375;BME280;70244;48.792;9.172;2023-11-21T12:43:14;97239.19;;;19.97;70.68
60375;BME280;70244;48.792;9.172;2023-11-21T12:45:45;97240.97;;;20.06;70.45
60375;BME280;70244;48.792;9.172;2023-11-21T12:48:15;97243.78;;;19.98;70.68
60375;BME280;70244;48.792;9.172;2023-11-21T12:50:45;97246.29;;;19.97;70.57
60375;BME280;70244;48.792;9.172;2023-11-21T12:53:16;97242.36;;;20.14;70.06
60375;BME280;70244;48.792;9.172;2023-11-21T12:55:46;97238.90;;;19.87;70.71
60375;BME280;70244;48.792;9.172;2023-11-21T12:58:17;97241.69;;;19.87;70.31
60375;BME280;70244;48.792;9.172;2023-11-21T13:00:48;97243.24;;;19.90;70.26
60375;BME280;70244;48.792;9.172;2023-11-21T13:03:17;97244.79;;;19.74;70.61
60375;BME280;70244;48.792;9.172;2023-11-21T13:05:48;97243.79;;;20.01;69.83
60375;BME280;70244;48.792;9.172;2023-11-21T13:08:18;97239.90;;;19.73;70.58
60375;BME280;70244;48.792;9.172;2023-11-21T13:10:50;97241.89;;;19.79;70.42
60375;BME280;70244;48.792;9.172;2023-11-21T13:13:18;97242.14;;;19.66;70.71
60375;BME280;70244;48.792;9.172;2023-11-21T13:15:50;97253.07;;;19.33;71.66
60375;BME280;70244;48.792;9.172;2023-11-21T13:18:19;97251.93;;;19.65;70.77
60375;BME280;70244;48.792;9.172;2023-11-21T13:20:50;97252.45;;;19.50;71.16
60375;BME280;70244;48.792;9.172;2023-11-21T13:23:20;97258.97;;;19.27;71.83
60375;BME280;70244;48.792;9.172;2023-11-21T13:25:50;97263.90;;;19.36;71.52
60375;BME280;70244;48.792;9.172;2023-11-21T13:28:20;97268.34;;;19.28;71.80
60375;BME280;70244;48.792;9.172;2023-11-21T13:30:51;97272.62;;;19.29;71.76
60375;BME280;70244;48.792;9.172;2023-11-21T13:33:21;97277.87;;;19.35;71.54
60375;BME280;70244;48.792;9.172;2023-11-21T13:35:51;97281.05;;;19.31;71.56
60375;BME280;70244;48.792;9.172;2023-11-21T13:38:22;97280.22;;;19.45;71.20
60375;BME280;70244;48.792;9.172;2023-11-21T13:40:53;97283.71;;;19.15;72.09
60375;BME280;70244;48.792;9.172;2023-11-21T13:43:25;97285.11;;;19.21;71.91
60375;BME280;70244;48.792;9.172;2023-11-21T13:45:53;97286.55;;;19.08;72.29
60375;BME280;70244;48.792;9.172;2023-11-21T13:48:23;97286.44;;;19.16;72.15
60375;BME280;70244;48.792;9.172;2023-11-21T13:50:53;97283.84;;;19.19;71.95
60375;BME280;70244;48.792;9.172;2023-11-21T13:53:24;97287.92;;;19.24;71.89
60375;BME280;70244;48.792;9.172;2023-11-21T13:55:54;97289.13;;;19.13;72.09
60375;BME280;70244;48.792;9.172;2023-11-21T13:58:25;97289.99;;;19.06;72.26
60375;BME280;70244;48.792;9.172;2023-11-21T14:00:55;97295.23;;;19.07;72.26
60375;BME280;70244;48.792;9.172;2023-11-21T14:03:25;97302.13;;;19.01;72.30
60375;BME280;70244;48.792;9.172;2023-11-21T14:05:56;97301.42;;;19.16;71.86
60375;BME280;70244;48.792;9.172;2023-11-21T14:08:26;97309.99;;;19.01;72.41
60375;BME280;70244;48.792;9.172;2023-11-21T14:10:57;97314.42;;;19.02;72.36
60375;BME280;70244;48.792;9.172;2023-11-21T14:13:27;97318.65;;;18.98;72.51
60375;BME280;70244;48.792;9.172;2023-11-21T14:15:58;97319.20;;;19.11;72.13
60375;BME280;70244;48.792;9.172;2023-11-21T14:18:28;97317.24;;;18.82;72.80
60375;BME280;70244;48.792;9.172;2023-11-21T14:20:58;97321.72;;;19.02;72.33
60375;BME280;70244;48.792;9.172;2023-11-21T14:23:29;97321.47;;;18.74;73.03
60375;BME280;70244;48.792;9.172;2023-11-21T14:25:59;97321.44;;;18.92;72.48
60375;BME280;70244;48.792;9.172;2023-11-21T14:28:30;97325.48;;;18.97;72.38
60375;BME280;70244;48.792;9.172;2023-11-21T14:31:01;97327.55;;;18.97;72.40
60375;BME280;70244;48.792;9.172;2023-11-21T14:33:32;97327.71;;;18.80;72.78
60375;BME280;70244;48.792;9.172;2023-11-21T14:36:02;97330.77;;;18.95;72.34
60375;BME280;70244;48.792;9.172;2023-11-21T14:38:32;97334.67;;;18.70;73.05
60375;BME280;70244;48.792;9.172;2023-11-21T14:41:02;97338.23;;;18.54;73.42
60375;BME280;70244;48.792;9.172;2023-11-21T14:43:33;97338.23;;;18.78;72.64
60375;BME280;70244;48.792;9.172;2023-11-21T14:46:03;97339.22;;;18.81;72.48
60375;BME280;70244;48.792;9.172;2023-11-21T14:48:33;97346.71;;;18.64;73.03
60375;BME280;70244;48.792;9.172;2023-11-21T14:51:04;97352.19;;;18.60;73.07
60375;BME280;70244;48.792;9.172;2023-11-21T14:53:34;97354.59;;;18.48;73.32
60375;BME280;70244;48.792;9.172;2023-11-21T14:56:06;97362.71;;;18.28;74.00
60375;BME280;70244;48.792;9.172;2023-11-21T14:58:35;97364.98;;;18.49;73.49
60375;BME280;70244;48.792;9.172;2023-11-21T15:01:05;97369.78;;;18.60;73.03
60375;BME280;70244;48.792;9.172;2023-11-21T15:03:36;97364.52;;;18.83;72.29
60375;BME280;70244;48.792;9.172;2023-11-21T15:06:06;97364.41;;;18.48;73.32
60375;BME280;70244;48.792;9.172;2023-11-21T15:08:36;97365.71;;;18.83;72.35
60375;BME280;70244;48.792;9.172;2023-11-21T15:11:12;97372.20;;;18.74;72.53
60375;BME280;70244;48.792;9.172;2023-11-21T15:13:37;97377.19;;;18.61;72.96
60375;BME280;70244;48.792;9.172;2023-11-21T15:16:08;97381.26;;;18.49;73.27
60375;BME280;70244;48.792;9.172;2023-11-21T15:18:38;97386.68;;;18.52;73.30
60375;BME280;70244;48.792;9.172;2023-11-21T15:21:08;97387.44;;;18.49;73.46
60375;BME280;70244;48.792;9.172;2023-11-21T15:23:39;97394.59;;;18.86;72.17
60375;BME280;70244;48.792;9.172;2023-11-21T15:26:09;97400.35;;;18.63;73.20
60375;BME280;70244;48.792;9.172;2023-11-21T15:28:39;97402.27;;;18.80;72.90
60375;BME280;70244;48.792;9.172;2023-11-21T15:31:10;97406.75;;;18.75;73.42
60375;BME280;70244;48.792;9.172;2023-11-21T15:33:40;97402.96;;;18.90;72.90
60375;BME280;70244;48.792;9.172;2023-11-21T15:36:10;97403.83;;;18.84;73.05
60375;BME280;70244;48.792;9.172;2023-11-21T15:38:41;97407.87;;;18.68;73.79
60375;BME280;70244;48.792;9.172;2023-11-21T15:41:11;97407.72;;;18.80;73.71
60375;BME280;70244;48.792;9.172;2023-11-21T15:43:41;97414.20;;;18.56;75.03
60375;BME280;70244;48.792;9.172;2023-11-21T15:46:12;97415.55;;;18.70;74.42
60375;BME280;70244;48.792;9.172;2023-11-21T15:48:42;97417.36;;;18.75;74.12
60375;BME280;70244;48.792;9.172;2023-11-21T15:51:13;97418.16;;;18.66;74.25
60375;BME280;70244;48.792;9.172;2023-11-21T15:53:44;97416.30;;;18.44;74.95
60375;BME280;70244;48.792;9.172;2023-11-21T15:56:14;97419.26;;;18.20;75.44
60375;BME280;70244;48.792;9.172;2023-11-21T15:58:44;97425.10;;;18.17;75.62
60375;BME280;70244;48.792;9.172;2023-11-21T16:01:15;97430.19;;;18.48;75.62
60375;BME280;70244;48.792;9.172;2023-11-21T16:03:45;97436.59;;;19.12;73.40
60375;BME280;70244;48.792;9.172;2023-11-21T16:06:16;97431.67;;;19.24;73.18
60375;BME280;70244;48.792;9.172;2023-11-21T16:08:46;97435.12;;;19.64;72.01
60375;BME280;70244;48.792;9.172;2023-11-21T16:11:17;97440.92;;;19.73;71.50
60375;BME280;70244;48.792;9.172;2023-11-21T16:13:47;97442.08;;;19.96;70.54
60375;BME280;70244;48.792;9.172;2023-11-21T16:16:20;97443.51;;;19.98;70.45
60375;BME280;70244;48.792;9.172;2023-11-21T16:18:48;97447.39;;;20.09;70.26
60375;BME280;70244;48.792;9.172;2023-11-21T16:21:18;97454.06;;;20.32;69.55
60375;BME280;70244;48.792;9.172;2023-11-21T16:23:49;97455.63;;;21.35;65.71
60375;BME280;70244;48.792;9.172;2023-11-21T16:26:19;97451.43;;;21.54;65.18
60375;BME280;70244;48.792;9.172;2023-11-21T16:28:50;97458.64;;;21.59;64.60
60375;BME280;70244;48.792;9.172;2023-11-21T16:31:23;97463.64;;;21.43;64.95
60375;BME280;70244;48.792;9.172;2023-11-21T16:33:50;97465.30;;;22.10;63.60
60375;BME280;70244;48.792;9.172;2023-11-21T16:36:21;97468.43;;;21.84;63.99
60375;BME280;70244;48.792;9.172;2023-11-21T16:38:52;97474.60;;;22.09;63.26
60375;BME280;70244;48.792;9.172;2023-11-21T16:41:22;97478.22;;;22.13;63.33
60375;BME280;70244;48.792;9.172;2023-11-21T16:43:52;97482.06;;;22.02;63.47
60375;BME280;70244;48.792;9.172;2023-11-21T16:46:22;97482.65;;;22.02;63.52
60375;BME280;70244;48.792;9.172;2023-11-21T16:48:52;97485.40;;;21.46;64.95
60375;BME280;70244;48.792;9.172;2023-11-21T16:51:23;97490.73;;;21.48;65.05
60375;BME280;70244;48.792;9.172;2023-11-21T16:53:53;97490.94;;;21.03;66.05
60375;BME280;70244;48.792;9.172;2023-11-21T16:56:24;97495.18;;;21.04;66.12
60375;BME280;70244;48.792;9.172;2023-11-21T16:58:54;97500.27;;;20.21;68.73
60375;BME280;70244;48.792;9.172;2023-11-21T17:01:25;97500.25;;;20.29;68.47
60375;BME280;70244;48.792;9.172;2023-11-21T17:03:55;97503.74;;;20.27;68.46
60375;BME280;70244;48.792;9.172;2023-11-21T17:06:27;97509.27;;;20.20;68.77
60375;BME280;70244;48.792;9.172;2023-11-21T17:08:56;97511.72;;;20.09;69.07
60375;BME280;70244;48.792;9.172;2023-11-21T17:11:26;97516.66;;;19.93;69.59
60375;BME280;70244;48.792;9.172;2023-11-21T17:13:57;97520.69;;;19.84;69.87
60375;BME280;70244;48.792;9.172;2023-11-21T17:16:27;97519.00;;;19.90;69.73
60375;BME280;70244;48.792;9.172;2023-11-21T17:18:58;97521.54;;;19.84;70.30
60375;BME280;70244;48.792;9.172;2023-11-21T17:21:28;97520.71;;;19.97;70.40
60375;BME280;70244;48.792;9.172;2023-11-21T17:23:59;97526.35;;;19.66;71.21
60375;BME280;70244;48.792;9.172;2023-11-21T17:26:29;97526.42;;;19.69;70.94
60375;BME280;70244;48.792;9.172;2023-11-21T17:28:59;97529.07;;;19.42;71.69
60375;BME280;70244;48.792;9.172;2023-11-21T17:31:29;97527.80;;;20.21;70.27
60375;BME280;70244;48.792;9.172;2023-11-21T17:33:59;97530.24;;;20.16;70.67
60375;BME280;70244;48.792;9.172;2023-11-21T17:36:29;97538.96;;;19.67;72.06
60375;BME280;70244;48.792;9.172;2023-11-21T17:39:00;97545.44;;;19.40;73.18
60375;BME280;70244;48.792;9.172;2023-11-21T17:41:30;97549.12;;;19.17;74.95
60375;BME280;70244;48.792;9.172;2023-11-21T17:44:01;97553.04;;;19.09;76.49
60375;BME280;70244;48.792;9.172;2023-11-21T17:46:32;97552.65;;;19.12;77.83
60375;BME280;70244;48.792;9.172;2023-11-21T17:49:02;97555.67;;;19.07;79.70
60375;BME280;70244;48.792;9.172;2023-11-21T17:51:37;97557.28;;;19.79;81.23
60375;BME280;70244;48.792;9.172;2023-11-21T17:54:04;97559.87;;;19.56;79.59
60375;BME280;70244;48.792;9.172;2023-11-21T17:56:34;97565.18;;;19.64;79.75
60375;BME280;70244;48.792;9.172;2023-11-21T17:59:04;97567.53;;;20.28;80.20
60375;BME280;70244;48.792;9.172;2023-11-21T18:01:37;97566.32;;;20.53;77.61
60375;BME280;70244;48.792;9.172;2023-11-21T18:04:06;97570.27;;;20.73;76.70
60375;BME280;70244;48.792;9.172;2023-11-21T18:06:37;97574.61;;;21.69;73.12
60375;BME280;70244;48.792;9.172;2023-11-21T18:09:06;97570.99;;;21.50;73.65
60375;BME280;70244;48.792;9.172;2023-11-21T18:11:37;97573.91;;;21.41;73.69
60375;BME280;70244;48.792;9.172;2023-11-21T18:14:07;97583.34;;;22.19;71.23
60375;BME280;70244;48.792;9.172;2023-11-21T18:16:37;97588.57;;;21.95;70.79
60375;BME280;70244;48.792;9.172;2023-11-21T18:19:08;97588.46;;;22.08;70.91
60375;BME280;70244;48.792;9.172;2023-11-21T18:21:38;97591.49;;;21.87;72.08
60375;BME280;70244;48.792;9.172;2023-11-21T18:24:09;97593.41;;;21.95;67.70
60375;BME280;70244;48.792;9.172;2023-11-21T18:26:39;97587.98;;;21.92;67.23
60375;BME280;70244;48.792;9.172;2023-11-21T18:29:09;97590.35;;;22.14;61.12
60375;BME280;70244;48.792;9.172;2023-11-21T18:31:40;97597.27;;;22.21;64.29
60375;BME280;70244;48.792;9.172;2023-11-21T18:34:10;97605.30;;;22.33;64.47
60375;BME280;70244;48.792;9.172;2023-11-21T18:36:43;97609.21;;;21.84;66.54